Time;durP1;ratioP1;P1;durP2;ratioP2;P2;SDS_P1;SDS_P2;PMS_P1;PMS_P2;Temp;Humidity;BMP_temperature;BMP_pressure;BME280_temperature;BME280_humidity;BME280_pressure;Samples;Min_cycle;Max_cycle;Signal;HPM_P1;HPM_P2
2022/03/08 00:00:29;;;;;;;1.90;1.33;;;13.60;35.60;;;;;;5094396;28;20391;-73
2022/03/08 00:02:54;;;;;;;2.17;1.70;;;13.50;35.60;;;;;;5076436;28;20054;-73
2022/03/08 00:05:22;;;;;;;3.83;2.03;;;13.50;35.60;;;;;;5076304;28;20495;-73
2022/03/08 00:07:48;;;;;;;3.55;2.30;;;13.50;35.60;;;;;;5094255;28;20036;-74
2022/03/08 00:10:14;;;;;;;2.05;1.63;;;13.50;35.60;;;;;;5075935;28;20072;-73
2022/03/08 00:12:40;;;;;;;2.45;1.70;;;13.50;35.70;;;;;;5094213;28;20040;-74
2022/03/08 00:15:11;;;;;;;2.95;2.05;;;13.40;35.60;;;;;;5094140;28;20089;-74
2022/03/08 00:17:38;;;;;;;2.00;1.42;;;13.40;35.60;;;;;;5075644;28;20047;-74
2022/03/08 00:20:06;;;;;;;2.40;1.55;;;13.40;35.60;;;;;;5093851;28;20500;-73
2022/03/08 00:22:33;;;;;;;2.28;1.85;;;13.40;35.60;;;;;;5093906;28;20479;-74
2022/03/08 00:25:01;;;;;;;2.85;1.95;;;13.40;35.60;;;;;;5075112;28;20051;-74
2022/03/08 00:27:28;;;;;;;2.10;1.70;;;13.40;35.60;;;;;;5075775;28;20047;-74
2022/03/08 00:29:54;;;;;;;2.08;1.80;;;13.40;35.80;;;;;;5075576;28;20043;-74
2022/03/08 00:32:20;;;;;;;2.78;1.48;;;13.40;35.70;;;;;;5075506;28;20074;-74
2022/03/08 00:34:45;;;;;;;4.63;2.30;;;13.40;35.70;;;;;;5058941;28;20048;-74
2022/03/08 00:37:11;;;;;;;2.25;1.60;;;13.40;35.70;;;;;;5093821;28;20562;-74
2022/03/08 00:39:37;;;;;;;2.78;2.05;;;13.40;35.80;;;;;;5075375;28;20055;-74
2022/03/08 00:42:03;;;;;;;2.53;1.95;;;13.30;35.60;;;;;;5075570;28;20044;-74
2022/03/08 00:44:29;;;;;;;4.25;2.10;;;13.40;35.70;;;;;;5075398;28;20119;-74
2022/03/08 00:46:55;;;;;;;2.25;1.58;;;13.30;35.70;;;;;;5075078;28;20063;-74
2022/03/08 00:49:20;;;;;;;2.00;1.67;;;13.30;35.70;;;;;;5093185;28;20040;-74
2022/03/08 00:51:46;;;;;;;2.53;1.55;;;13.40;35.80;;;;;;5074827;28;20432;-73
2022/03/08 00:54:12;;;;;;;2.80;1.92;;;13.40;35.80;;;;;;5093270;28;20364;-74
2022/03/08 00:56:37;;;;;;;3.80;2.20;;;13.40;35.80;;;;;;5075218;28;20416;-74
2022/03/08 00:59:03;;;;;;;2.35;1.88;;;13.30;35.70;;;;;;5075106;28;20058;-74
2022/03/08 01:01:30;;;;;;;2.65;1.88;;;13.40;35.80;;;;;;5092313;28;20507;-74
2022/03/08 01:03:56;;;;;;;2.70;1.42;;;13.30;35.80;;;;;;5075181;28;20049;-74
2022/03/08 01:06:22;;;;;;;2.20;1.92;;;13.30;35.80;;;;;;5092901;28;20395;-74
2022/03/08 01:08:47;;;;;;;3.05;1.90;;;13.30;35.80;;;;;;5074800;28;20040;-74
2022/03/08 01:11:13;;;;;;;4.13;2.03;;;13.30;35.80;;;;;;5074722;28;20034;-74
2022/03/08 01:13:39;;;;;;;2.97;2.10;;;13.30;35.80;;;;;;5092913;28;20028;-74
2022/03/08 01:16:05;;;;;;;2.00;1.67;;;13.30;35.80;;;;;;5074622;28;20391;-73
2022/03/08 01:18:30;;;;;;;1.83;1.38;;;13.30;35.80;;;;;;5074651;28;20600;-74
2022/03/08 01:20:57;;;;;;;3.90;1.60;;;13.30;35.70;;;;;;5074446;28;20043;-74
2022/03/08 01:23:29;;;;;;;2.85;2.10;;;13.30;35.70;;;;;;5074647;28;20541;-74
2022/03/08 01:25:55;;;;;;;4.45;2.28;;;13.30;35.80;;;;;;5074516;28;20468;-75
2022/03/08 01:28:20;;;;;;;3.22;2.47;;;13.20;35.70;;;;;;5074434;28;20040;-74
2022/03/08 01:30:46;;;;;;;3.63;2.47;;;13.20;35.70;;;;;;5092715;28;20031;-75
2022/03/08 01:33:12;;;;;;;2.55;1.80;;;13.20;35.70;;;;;;5092928;28;20560;-74
2022/03/08 01:35:38;;;;;;;3.83;2.58;;;13.20;35.70;;;;;;5074450;28;20109;-74
2022/03/08 01:38:03;;;;;;;2.42;1.67;;;13.20;36.50;;;;;;5074247;28;20040;-74
2022/03/08 01:40:32;;;;;;;3.00;1.95;;;13.20;35.70;;;;;;5074602;28;20032;-74
2022/03/08 01:43:01;;;;;;;2.88;2.30;;;13.10;35.70;;;;;;5074172;28;20043;-75
2022/03/08 01:45:27;;;;;;;2.90;2.58;;;13.10;36.50;;;;;;5074597;28;20119;-74
2022/03/08 01:47:53;;;;;;;3.50;2.53;;;13.10;35.80;;;;;;5074420;28;20093;-74
2022/03/08 01:50:19;;;;;;;1.98;1.77;;;13.10;35.90;;;;;;5074124;28;20048;-73
2022/03/08 01:52:45;;;;;;;3.05;2.38;;;13.10;35.90;;;;;;5074131;28;20048;-74
2022/03/08 01:55:12;;;;;;;3.85;2.30;;;13.10;35.90;;;;;;5074015;28;20054;-74
2022/03/08 01:57:38;;;;;;;2.83;1.88;;;13.10;35.90;;;;;;5074105;28;20046;-73
2022/03/08 02:00:10;;;;;;;5.07;3.03;;;13.00;35.90;;;;;;5074281;28;20450;-74
2022/03/08 02:02:35;;;;;;;4.70;2.22;;;13.10;36.00;;;;;;5092092;28;20369;-74
2022/03/08 02:05:01;;;;;;;2.63;2.13;;;13.00;35.90;;;;;;5073950;28;20039;-73
2022/03/08 02:07:27;;;;;;;2.85;2.33;;;13.00;35.90;;;;;;5073968;28;20040;-74
2022/03/08 02:09:52;;;;;;;3.72;3.03;;;13.00;35.90;;;;;;5073908;28;20047;-74
2022/03/08 02:12:18;;;;;;;2.58;2.35;;;12.90;35.90;;;;;;5074017;28;20036;-74
2022/03/08 02:14:43;;;;;;;3.42;2.67;;;12.90;35.90;;;;;;5073842;28;20514;-74
2022/03/08 02:17:10;;;;;;;3.85;2.75;;;12.90;36.00;;;;;;5073681;28;20059;-73
2022/03/08 02:19:35;;;;;;;3.83;2.33;;;12.90;36.00;;;;;;5073715;28;20044;-74
2022/03/08 02:22:01;;;;;;;4.47;2.58;;;12.80;36.00;;;;;;5073813;28;20101;-74
2022/03/08 02:24:27;;;;;;;3.75;2.65;;;12.80;36.10;;;;;;5073690;28;20054;-73
2022/03/08 02:26:52;;;;;;;3.08;2.78;;;12.80;36.10;;;;;;5074268;28;20181;-74
2022/03/08 02:29:18;;;;;;;3.17;2.75;;;12.80;36.10;;;;;;5091821;28;20507;-73
2022/03/08 02:31:44;;;;;;;3.40;2.70;;;12.80;36.10;;;;;;5091833;28;20122;-74
2022/03/08 02:34:09;;;;;;;3.40;2.80;;;12.80;36.20;;;;;;5073774;28;20044;-74
2022/03/08 02:36:35;;;;;;;3.13;2.30;;;12.80;36.20;;;;;;5073946;28;20046;-73
2022/03/08 02:39:01;;;;;;;3.15;1.92;;;12.70;36.20;;;;;;5073668;28;20044;-74
2022/03/08 02:41:27;;;;;;;3.53;2.45;;;12.70;36.20;;;;;;5073683;28;20044;-74
2022/03/08 02:43:53;;;;;;;3.70;2.85;;;12.70;36.20;;;;;;5073823;28;20036;-74
2022/03/08 02:46:18;;;;;;;4.68;3.10;;;12.70;36.20;;;;;;5073777;28;20415;-74
2022/03/08 02:48:44;;;;;;;3.10;2.38;;;12.70;36.20;;;;;;5091695;28;20458;-73
2022/03/08 02:51:10;;;;;;;3.85;2.85;;;12.70;36.20;;;;;;5073441;28;20089;-74
2022/03/08 02:53:35;;;;;;;3.33;2.53;;;12.70;36.30;;;;;;5073798;28;20040;-74
2022/03/08 02:56:01;;;;;;;3.03;2.65;;;12.70;36.20;;;;;;5073744;28;20475;-74
2022/03/08 02:58:27;;;;;;;3.03;2.58;;;12.70;36.20;;;;;;5091519;28;20073;-71
2022/03/08 03:00:53;;;;;;;4.25;2.45;;;12.70;36.20;;;;;;5073376;28;20486;-72
2022/03/08 03:03:19;;;;;;;3.90;2.70;;;12.70;36.30;;;;;;5073495;28;20074;-72
2022/03/08 03:05:44;;;;;;;3.58;2.78;;;12.60;36.20;;;;;;5073224;28;20071;-72
2022/03/08 03:08:10;;;;;;;3.35;2.45;;;12.60;36.20;;;;;;5091440;28;20040;-72
2022/03/08 03:10:36;;;;;;;3.50;2.33;;;12.60;36.20;;;;;;5073233;28;20090;-72
2022/03/08 03:13:02;;;;;;;3.08;2.78;;;12.60;36.20;;;;;;5073469;28;20044;-72
2022/03/08 03:15:29;;;;;;;4.40;2.60;;;12.60;36.30;;;;;;5090808;28;20056;-72
2022/03/08 03:17:56;;;;;;;3.00;2.50;;;12.60;36.30;;;;;;5072958;28;20052;-72
2022/03/08 03:20:23;;;;;;;2.63;2.05;;;12.60;36.30;;;;;;5091312;28;20431;-72
2022/03/08 03:22:49;;;;;;;3.00;2.63;;;12.60;36.40;;;;;;5073277;28;20044;-72
2022/03/08 03:25:16;;;;;;;3.42;2.30;;;12.60;36.30;;;;;;5075600;28;20491;-72
2022/03/08 03:27:42;;;;;;;3.03;2.72;;;12.60;36.40;;;;;;5076858;28;20047;-72
2022/03/08 03:30:11;;;;;;;3.05;2.55;;;12.60;36.40;;;;;;5076777;28;20568;-72
2022/03/08 03:32:37;;;;;;;3.55;2.63;;;12.60;36.40;;;;;;5094889;28;20075;-72
2022/03/08 03:35:04;;;;;;;3.88;2.90;;;12.50;36.40;;;;;;5076933;28;20036;-71
2022/03/08 03:37:30;;;;;;;3.50;2.90;;;12.50;36.30;;;;;;5076634;28;20415;-72
2022/03/08 03:39:56;;;;;;;4.55;3.00;;;12.50;36.40;;;;;;5076858;28;20039;-71
2022/03/08 03:42:22;;;;;;;3.58;2.60;;;12.50;37.10;;;;;;5094619;28;20410;-72
2022/03/08 03:44:48;;;;;;;5.00;3.17;;;12.50;36.40;;;;;;5094697;28;20707;-72
2022/03/08 03:47:17;;;;;;;3.88;2.90;;;12.50;36.40;;;;;;5076457;28;20048;-72
2022/03/08 03:49:42;;;;;;;3.67;3.30;;;12.50;36.40;;;;;;5076438;28;20093;-72
2022/03/08 03:52:08;;;;;;;4.22;2.92;;;12.50;36.40;;;;;;5094422;28;20036;-71
2022/03/08 03:54:34;;;;;;;4.20;2.72;;;12.50;36.30;;;;;;5094572;28;20043;-72
2022/03/08 03:56:59;;;;;;;3.97;3.17;;;12.50;36.30;;;;;;5076205;28;20380;-72
2022/03/08 03:59:25;;;;;;;3.33;2.80;;;12.50;36.30;;;;;;5076309;28;20036;-72
2022/03/08 04:01:51;;;;;;;3.38;3.08;;;12.50;36.40;;;;;;5076225;28;20032;-71
2022/03/08 04:04:16;;;;;;;3.85;2.90;;;12.50;36.40;;;;;;5094311;28;20097;-72
2022/03/08 04:06:43;;;;;;;4.88;3.75;;;12.50;36.40;;;;;;5076020;28;20048;-72
2022/03/08 04:09:09;;;;;;;3.15;2.85;;;12.50;36.40;;;;;;5076140;28;20051;-71
2022/03/08 04:11:34;;;;;;;4.22;2.88;;;12.50;36.40;;;;;;5076003;28;20121;-71
2022/03/08 04:14:00;;;;;;;4.47;3.00;;;12.40;36.40;;;;;;5094223;28;20078;-72
2022/03/08 04:16:26;;;;;;;3.80;3.25;;;12.40;36.40;;;;;;5093984;28;20052;-71
2022/03/08 04:18:52;;;;;;;2.92;2.50;;;12.40;36.40;;;;;;5075833;28;20044;-71
2022/03/08 04:21:18;;;;;;;3.55;3.05;;;12.40;36.50;;;;;;5075832;28;20062;-71
2022/03/08 04:23:43;;;;;;;4.22;3.35;;;12.40;36.50;;;;;;5074979;28;20086;-74
2022/03/08 04:26:09;;;;;;;3.95;2.90;;;12.40;36.50;;;;;;5075925;28;20032;-74
2022/03/08 04:28:35;;;;;;;4.05;3.40;;;12.40;36.50;;;;;;5075907;28;20044;-74
2022/03/08 04:31:01;;;;;;;3.78;3.35;;;12.40;36.50;;;;;;5075601;28;20399;-74
2022/03/08 04:33:26;;;;;;;4.60;3.13;;;12.30;36.50;;;;;;5075836;28;20277;-74
2022/03/08 04:35:52;;;;;;;3.90;3.10;;;12.40;36.50;;;;;;5075814;28;20050;-74
2022/03/08 04:38:18;;;;;;;3.67;3.03;;;12.30;36.50;;;;;;5093499;28;20090;-74
2022/03/08 04:40:43;;;;;;;3.85;3.03;;;12.30;36.50;;;;;;5093651;28;20075;-73
2022/03/08 04:43:09;;;;;;;5.70;4.25;;;12.30;36.50;;;;;;5093470;28;20040;-74
2022/03/08 04:45:34;;;;;;;4.75;3.78;;;12.30;36.50;;;;;;5093400;28;20043;-73
2022/03/08 04:48:00;;;;;;;4.10;3.15;;;12.30;36.50;;;;;;5092905;28;20511;-73
2022/03/08 04:50:26;;;;;;;3.70;2.95;;;12.30;36.50;;;;;;5075544;28;20044;-73
2022/03/08 04:52:52;;;;;;;3.75;3.33;;;12.30;36.50;;;;;;5075175;28;20618;-74
2022/03/08 04:55:19;;;;;;;3.63;3.33;;;12.30;36.50;;;;;;5075224;28;20060;-73
2022/03/08 04:57:46;;;;;;;4.47;3.40;;;12.30;36.60;;;;;;5075210;28;20039;-73
2022/03/08 05:00:13;;;;;;;4.28;3.47;;;12.30;36.60;;;;;;5093519;28;20154;-73
2022/03/08 05:02:45;;;;;;;4.20;3.80;;;12.20;36.50;;;;;;5075194;28;20047;-74
2022/03/08 05:05:12;;;;;;;4.03;3.58;;;12.20;36.60;;;;;;5074895;28;20043;-74
2022/03/08 05:07:39;;;;;;;3.92;3.15;;;12.20;36.60;;;;;;5093090;28;20048;-74
2022/03/08 05:10:07;;;;;;;4.15;3.75;;;12.20;36.60;;;;;;5093353;28;20036;-74
2022/03/08 05:12:34;;;;;;;3.30;2.90;;;12.20;36.60;;;;;;5075341;28;20055;-74
2022/03/08 05:15:00;;;;;;;3.75;3.45;;;12.20;37.40;;;;;;5092942;28;20554;-73
2022/03/08 05:17:26;;;;;;;3.65;3.25;;;12.20;36.60;;;;;;5092697;28;20048;-73
2022/03/08 05:19:52;;;;;;;4.05;3.63;;;12.10;36.60;;;;;;5074479;28;20115;-73
2022/03/08 05:22:18;;;;;;;4.32;3.55;;;12.20;36.60;;;;;;5074869;28;20048;-73
2022/03/08 05:24:44;;;;;;;5.68;3.55;;;12.20;36.60;;;;;;5074786;28;20604;-74
2022/03/08 05:27:10;;;;;;;4.13;3.30;;;12.10;36.60;;;;;;5074080;28;20062;-74
2022/03/08 05:29:36;;;;;;;5.57;3.97;;;12.10;36.60;;;;;;5074274;28;20097;-74
2022/03/08 05:32:06;;;;;;;4.15;3.53;;;12.10;36.70;;;;;;5074765;28;20487;-74
2022/03/08 05:34:32;;;;;;;3.83;3.45;;;12.10;36.70;;;;;;5074618;28;20051;-74
2022/03/08 05:36:57;;;;;;;3.95;3.55;;;12.10;36.70;;;;;;5074383;28;20040;-74
2022/03/08 05:39:23;;;;;;;4.00;3.60;;;12.00;36.70;;;;;;5074342;28;20388;-73
2022/03/08 05:41:49;;;;;;;4.53;3.60;;;12.00;36.70;;;;;;5074529;28;20039;-73
2022/03/08 05:44:15;;;;;;;4.32;3.40;;;12.00;36.70;;;;;;5092452;28;20418;-73
2022/03/08 05:46:42;;;;;;;3.53;3.10;;;12.00;36.70;;;;;;5073942;28;20048;-73
2022/03/08 05:49:07;;;;;;;4.35;3.55;;;12.00;36.80;;;;;;5092374;28;20051;-73
2022/03/08 05:51:33;;;;;;;4.95;3.63;;;12.00;36.70;;;;;;5091502;28;20048;-73
2022/03/08 05:53:59;;;;;;;4.30;3.90;;;12.00;36.70;;;;;;5074130;28;20040;-73
2022/03/08 05:56:25;;;;;;;4.43;3.13;;;12.00;36.70;;;;;;5073913;28;20114;-73
2022/03/08 05:58:50;;;;;;;4.50;3.38;;;12.00;36.70;;;;;;5092126;28;20093;-73
2022/03/08 06:01:16;;;;;;;3.53;3.08;;;12.00;36.70;;;;;;5074265;28;20115;-74
2022/03/08 06:03:41;;;;;;;4.43;3.47;;;12.00;36.70;;;;;;5092271;28;20024;-73
2022/03/08 06:06:07;;;;;;;4.38;3.50;;;12.00;36.70;;;;;;5092007;28;20377;-73
2022/03/08 06:08:33;;;;;;;3.35;3.05;;;12.00;36.70;;;;;;5092083;28;20044;-73
2022/03/08 06:10:59;;;;;;;4.30;3.72;;;12.00;36.80;;;;;;5074157;28;20079;-74
2022/03/08 06:13:24;;;;;;;3.97;3.33;;;12.00;36.80;;;;;;5091946;28;20044;-73
2022/03/08 06:15:50;;;;;;;5.45;3.70;;;12.00;36.80;;;;;;5092168;28;20035;-73
2022/03/08 06:18:15;;;;;;;4.32;3.83;;;12.00;36.70;;;;;;5073610;28;20143;-73
2022/03/08 06:20:41;;;;;;;3.58;3.28;;;12.00;36.70;;;;;;5073804;28;20040;-73
2022/03/08 06:23:07;;;;;;;3.92;3.25;;;12.00;36.70;;;;;;5091195;28;20032;-73
2022/03/08 06:25:32;;;;;;;5.28;2.78;;;12.00;36.70;;;;;;5080675;28;20453;-73
2022/03/08 06:27:58;;;;;;;4.45;2.88;;;12.00;37.80;;;;;;5072763;28;20059;-73
2022/03/08 06:30:24;;;;;;;3.40;3.05;;;12.10;38.30;;;;;;5090962;28;20535;-73
2022/03/08 06:32:50;;;;;;;7.85;3.40;;;12.20;38.20;;;;;;5072984;28;20624;-73
2022/03/08 06:35:17;;;;;;;4.55;2.92;;;12.30;38.20;;;;;;5072724;28;20460;-73
2022/03/08 06:37:43;;;;;;;3.88;3.40;;;12.30;38.20;;;;;;5072778;28;20533;-73
2022/03/08 06:40:09;;;;;;;4.05;3.40;;;12.40;38.40;;;;;;5072081;28;20040;-72
2022/03/08 06:42:36;;;;;;;4.78;2.85;;;12.40;38.40;;;;;;5071279;28;20036;-73
2022/03/08 06:45:07;;;;;;;3.63;3.28;;;12.40;38.40;;;;;;5089302;28;20036;-73
2022/03/08 06:47:32;;;;;;;4.32;3.90;;;12.40;38.90;;;;;;5069382;28;20047;-74
2022/03/08 06:49:58;;;;;;;4.43;3.38;;;12.40;38.40;;;;;;5089052;28;20036;-74
2022/03/08 06:52:27;;;;;;;4.43;3.28;;;12.50;38.30;;;;;;5071150;28;20409;-73
2022/03/08 06:54:53;;;;;;;4.20;3.80;;;12.50;38.20;;;;;;5071985;28;20064;-73
2022/03/08 06:57:18;;;;;;;5.32;3.13;;;12.60;37.90;;;;;;5088927;28;20109;-73
2022/03/08 06:59:44;;;;;;;4.28;3.53;;;12.60;37.80;;;;;;5073125;28;20071;-73
2022/03/08 07:02:10;;;;;;;4.30;3.53;;;12.70;37.70;;;;;;5074008;28;20111;-72
2022/03/08 07:04:35;;;;;;;6.03;4.10;;;12.70;37.50;;;;;;5089402;28;20107;-73
2022/03/08 07:07:01;;;;;;;4.65;4.25;;;12.70;37.40;;;;;;5089298;28;20127;-71
2022/03/08 07:09:28;;;;;;;4.28;3.58;;;12.70;37.50;;;;;;5071582;28;20411;-71
2022/03/08 07:11:53;;;;;;;7.03;4.90;;;12.70;37.70;;;;;;5069153;28;20480;-74
2022/03/08 07:14:20;;;;;;;6.72;3.15;;;12.80;37.90;;;;;;5073250;28;20036;-74
2022/03/08 07:16:47;;;;;;;5.30;3.72;;;12.80;38.20;;;;;;5091146;28;20056;-76
2022/03/08 07:19:13;;;;;;;6.90;3.75;;;12.80;38.50;;;;;;5073415;28;20048;-70
2022/03/08 07:21:40;;;;;;;5.63;4.05;;;12.70;38.60;;;;;;5104816;28;20110;-72
2022/03/08 07:24:06;;;;;;;4.30;3.03;;;12.70;38.70;;;;;;5072438;28;20669;-71
2022/03/08 07:26:32;;;;;;;5.25;3.67;;;12.80;38.90;;;;;;5071573;28;20047;-75
2022/03/08 07:28:58;;;;;;;4.68;3.38;;;12.90;39.10;;;;;;5042099;28;20130;-71
2022/03/08 07:31:23;;;;;;;4.20;3.17;;;13.10;39.30;;;;;;5083372;28;20048;-74
2022/03/08 07:33:49;;;;;;;6.63;3.45;;;13.40;39.00;;;;;;5067242;28;20117;-74
2022/03/08 07:36:14;;;;;;;3.47;2.72;;;13.80;38.30;;;;;;5060537;28;20051;-74
2022/03/08 07:38:40;;;;;;;5.25;2.95;;;14.40;37.30;;;;;;5061856;28;20580;-75
2022/03/08 07:41:06;;;;;;;3.92;3.05;;;14.90;36.40;;;;;;5080908;28;20051;-74
2022/03/08 07:43:34;;;;;;;5.45;2.58;;;15.40;35.40;;;;;;5062140;28;20036;-73
2022/03/08 07:46:00;;;;;;;3.70;2.63;;;15.80;35.10;;;;;;5064726;28;20125;-72
2022/03/08 07:48:26;;;;;;;9.50;3.70;;;16.20;34.80;;;;;;5081631;28;20449;-73
2022/03/08 07:50:52;;;;;;;4.43;2.67;;;16.50;34.40;;;;;;5062224;28;20052;-71
2022/03/08 07:53:17;;;;;;;3.38;2.25;;;16.90;34.20;;;;;;5077898;28;20485;-73
2022/03/08 07:55:43;;;;;;;4.15;2.20;;;17.30;34.00;;;;;;5071811;28;20484;-72
2022/03/08 07:58:13;;;;;;;7.00;2.58;;;17.60;33.60;;;;;;5062878;28;20044;-72
2022/03/08 08:00:39;;;;;;;5.82;2.13;;;17.90;33.30;;;;;;5073775;28;20044;-72
2022/03/08 08:03:05;;;;;;;4.70;2.25;;;18.30;33.70;;;;;;5063348;28;20052;-78
2022/03/08 08:05:33;;;;;;;5.68;2.13;;;18.50;33.70;;;;;;5059118;28;20033;-75
2022/03/08 08:08:00;;;;;;;6.47;2.00;;;18.80;33.70;;;;;;5059704;28;20040;-72
2022/03/08 08:10:28;;;;;;;4.70;1.38;;;19.00;33.30;;;;;;5061086;28;20052;-73
2022/03/08 08:12:54;;;;;;;3.25;1.50;;;19.20;32.80;;;;;;5058762;28;20695;-74
2022/03/08 08:15:20;;;;;;;3.78;1.20;;;19.50;32.10;;;;;;5072862;28;20092;-69
2022/03/08 08:17:48;;;;;;;3.75;1.38;;;19.60;31.40;;;;;;5060294;28;20397;-78
2022/03/08 08:20:14;;;;;;;3.33;1.70;;;19.80;31.00;;;;;;5049440;28;20032;-71
2022/03/08 08:22:40;;;;;;;6.38;1.65;;;19.90;31.00;;;;;;5059178;28;20089;-71
2022/03/08 08:25:07;;;;;;;5.10;1.60;;;20.00;31.00;;;;;;5058472;28;20087;-72
2022/03/08 08:27:33;;;;;;;3.65;1.38;;;20.10;30.90;;;;;;5060122;28;20063;-77
2022/03/08 08:29:59;;;;;;;3.60;1.27;;;20.20;30.60;;;;;;5058350;28;20040;-71
2022/03/08 08:32:24;;;;;;;4.00;1.38;;;20.40;30.50;;;;;;5056620;28;20047;-72
2022/03/08 08:34:50;;;;;;;1.63;1.25;;;20.50;30.20;;;;;;5064479;28;20040;-69
2022/03/08 08:37:16;;;;;;;2.92;1.25;;;20.60;30.00;;;;;;5065195;28;20084;-70
2022/03/08 08:39:41;;;;;;;3.10;1.48;;;20.70;29.90;;;;;;5061547;28;20032;-72
2022/03/08 08:42:08;;;;;;;2.47;0.95;;;20.80;29.70;;;;;;5084025;28;20036;-72
2022/03/08 08:44:34;;;;;;;3.70;1.25;;;20.90;29.60;;;;;;5058402;28;20039;-73
2022/03/08 08:47:00;;;;;;;1.85;1.17;;;21.00;29.30;;;;;;5061535;28;20478;-77
2022/03/08 08:49:25;;;;;;;2.55;1.35;;;21.00;29.20;;;;;;5062046;28;20044;-75
2022/03/08 08:51:51;;;;;;;3.22;0.95;;;21.00;29.20;;;;;;5060696;28;20391;-74
2022/03/08 08:54:18;;;;;;;1.70;1.25;;;21.00;29.20;;;;;;5061063;28;20051;-73
2022/03/08 08:56:44;;;;;;;4.95;1.45;;;21.10;29.10;;;;;;5064912;28;20044;-73
2022/03/08 08:59:10;;;;;;;3.47;0.98;;;21.20;29.00;;;;;;5075161;28;20111;-77
2022/03/08 09:01:36;;;;;;;5.40;1.13;;;21.30;29.00;;;;;;5060705;28;20072;-75
2022/03/08 09:04:02;;;;;;;5.57;1.30;;;21.30;28.90;;;;;;5055140;28;20155;-74
2022/03/08 09:06:28;;;;;;;2.30;0.93;;;21.30;29.00;;;;;;5075511;28;20041;-78
2022/03/08 09:08:56;;;;;;;2.92;1.10;;;21.20;29.10;;;;;;5056583;28;20035;-71
2022/03/08 09:11:22;;;;;;;2.13;1.00;;;21.20;29.10;;;;;;5058229;28;20597;-72
2022/03/08 09:13:48;;;;;;;2.92;0.90;;;21.30;29.00;;;;;;5058077;28;20043;-76
2022/03/08 09:16:15;;;;;;;2.97;0.77;;;21.30;28.90;;;;;;5075666;28;20506;-71
2022/03/08 09:18:41;;;;;;;5.93;0.73;;;21.30;28.80;;;;;;5062242;28;20057;-71
2022/03/08 09:21:07;;;;;;;2.70;1.02;;;21.40;28.90;;;;;;5061251;28;20055;-71
2022/03/08 09:23:33;;;;;;;2.65;1.40;;;21.40;28.80;;;;;;5081498;28;20032;-69
2022/03/08 09:25:59;;;;;;;3.70;0.60;;;21.40;28.80;;;;;;5059796;28;20036;-73
2022/03/08 09:28:24;;;;;;;4.45;0.88;;;21.40;28.90;;;;;;5061769;28;20036;-73
2022/03/08 09:30:50;;;;;;;2.50;0.80;;;21.30;28.90;;;;;;5082545;28;20448;-73
2022/03/08 09:33:16;;;;;;;4.45;0.90;;;21.30;28.90;;;;;;5066876;28;20078;-72
2022/03/08 09:35:41;;;;;;;4.18;0.70;;;21.40;29.00;;;;;;5063291;28;20071;-71
2022/03/08 09:38:07;;;;;;;2.55;0.85;;;21.40;29.10;;;;;;5062221;28;20496;-70
2022/03/08 09:40:33;;;;;;;3.28;0.60;;;21.40;29.20;;;;;;5061232;28;20040;-69
2022/03/08 09:42:58;;;;;;;4.05;0.68;;;21.30;29.10;;;;;;5081519;28;20061;-70
2022/03/08 09:45:24;;;;;;;3.33;0.75;;;21.30;29.00;;;;;;5080496;28;20625;-69
2022/03/08 09:47:50;;;;;;;4.47;0.65;;;21.30;28.80;;;;;;5053446;28;20108;-72
2022/03/08 09:50:17;;;;;;;2.47;0.60;;;21.30;28.70;;;;;;5067849;28;20042;-72
2022/03/08 09:52:43;;;;;;;2.55;1.00;;;21.40;28.70;;;;;;5061241;28;20111;-72
2022/03/08 09:55:12;;;;;;;5.18;0.75;;;21.40;28.80;;;;;;5075786;28;20032;-78
2022/03/08 09:57:38;;;;;;;1.57;0.60;;;21.50;29.00;;;;;;5051289;28;20048;-75
2022/03/08 10:00:06;;;;;;;3.33;0.95;;;21.50;29.00;;;;;;5077228;28;20320;-73
2022/03/08 10:02:50;;;;;;;4.45;0.80;;;21.50;28.90;;;;;;5056849;28;20070;-74
2022/03/08 10:05:22;;;;;;;3.85;0.70;;;21.50;28.90;;;;;;5044049;28;20060;-75
2022/03/08 10:10:58;;;;;;;2.55;0.63;;;21.50;28.80;;;;;;5069444;27;20955;-79
2022/03/08 10:13:27;;;;;;;3.05;0.82;;;21.60;28.50;;;;;;5051817;28;20049;-76
2022/03/08 10:16:14;;;;;;;1.77;0.60;;;21.60;28.40;;;;;;5047900;28;20114;-73
2022/03/08 10:21:41;;;;;;;2.30;0.60;;;21.60;28.40;;;;;;5056964;27;20969;-71
2022/03/08 10:24:29;;;;;;;3.20;0.80;;;21.70;28.20;;;;;;5083991;28;20049;-70
2022/03/08 10:29:39;;;;;;;1.35;0.40;;;21.70;28.10;;;;;;5105676;27;20483;-76
2022/03/08 10:34:52;;;;;;;3.08;0.50;;;21.70;27.90;;;;;;5068753;27;20469;-70
2022/03/08 10:37:20;;;;;;;2.15;0.35;;;21.80;27.80;;;;;;5070706;28;20052;-74
2022/03/08 10:42:33;;;;;;;3.13;0.55;;;21.90;27.90;;;;;;5058528;27;1185427;-75
2022/03/08 10:45:10;;;;;;;2.73;0.60;;;21.90;28.00;;;;;;5052547;28;20870;-74
2022/03/08 10:50:25;;;;;;;3.53;0.65;;;21.90;28.00;;;;;;5083841;27;20411;-75
2022/03/08 10:52:54;;;;;;;2.38;0.50;;;22.00;27.80;;;;;;5073248;28;20116;-72
2022/03/08 10:55:27;;;;;;;3.28;0.55;;;22.00;27.70;;;;;;5070792;28;20825;-69
2022/03/08 11:00:42;;;;;;;4.40;0.52;;;22.10;27.90;;;;;;5096223;27;20136;-77
2022/03/08 11:03:10;;;;;;;5.25;0.60;;;22.10;27.90;;;;;;5090124;28;20048;-71
2022/03/08 11:05:39;;;;;;;5.50;0.88;;;22.10;28.00;;;;;;5073254;28;20033;-70
2022/03/08 11:08:05;;;;;;;4.40;0.45;;;22.20;28.20;;;;;;5091007;28;20044;-71
2022/03/08 11:10:32;;;;;;;3.53;0.50;;;22.10;28.30;;;;;;5075248;28;20093;-72
2022/03/08 11:12:59;;;;;;;5.32;0.77;;;22.10;28.40;;;;;;5072729;28;20040;-70
2022/03/08 11:15:27;;;;;;;3.85;0.50;;;22.10;28.40;;;;;;5072664;28;20050;-73
2022/03/08 11:17:54;;;;;;;3.75;0.50;;;22.10;28.50;;;;;;5070768;28;20102;-74
2022/03/08 11:20:22;;;;;;;5.25;0.50;;;22.10;28.50;;;;;;5072625;28;20052;-71
2022/03/08 11:22:51;;;;;;;5.93;0.70;;;22.10;28.50;;;;;;5076595;28;20051;-70
2022/03/08 11:25:18;;;;;;;2.75;0.52;;;22.10;28.40;;;;;;5074745;28;20147;-72
2022/03/08 11:27:47;;;;;;;1.70;0.40;;;22.10;28.40;;;;;;5088987;28;20043;-72
2022/03/08 11:30:18;;;;;;;6.25;0.90;;;22.00;28.20;;;;;;5075320;28;20047;-74
2022/03/08 11:38:13;;;;;;;4.20;0.55;;;22.00;27.80;;;;;;5108576;27;20412;-67
2022/03/08 11:40:50;;;;;;;2.55;0.60;;;21.70;27.50;;;;;;5099441;28;20090;-69
2022/03/08 11:43:16;;;;;;;2.55;0.60;;;21.50;27.50;;;;;;5095515;28;20124;-73
2022/03/08 11:45:42;;;;;;;5.65;1.23;;;21.40;27.40;;;;;;5096957;28;20499;-72
2022/03/08 11:48:09;;;;;;;4.95;0.80;;;21.30;27.50;;;;;;5098373;28;20552;-69
2022/03/08 11:50:39;;;;;;;6.35;0.50;;;21.20;27.60;;;;;;5115208;28;20085;-77
2022/03/08 11:53:10;;;;;;;4.15;0.52;;;21.20;27.60;;;;;;5100084;28;20058;-76
2022/03/08 11:55:44;;;;;;;2.88;0.60;;;21.10;27.70;;;;;;5100411;28;20386;-75
2022/03/08 12:00:54;;;;;;;3.05;0.80;;;21.10;27.80;;;;;;5120942;27;1180350;-70
2022/03/08 12:08:44;;;;;;;3.90;1.13;;;21.20;28.40;;;;;;5054004;28;20496;-74
2022/03/08 12:11:16;;;;;;;3.67;0.30;;;21.30;28.40;;;;;;5055920;28;20068;-75
2022/03/08 12:13:53;;;;;;;7.90;1.65;;;21.40;28.30;;;;;;5041951;28;20073;-82
2022/03/08 12:16:30;;;;;;;7.63;0.88;;;21.50;28.30;;;;;;5032336;28;20750;-79
2022/03/08 12:18:58;;;;;;;6.72;0.88;;;21.50;27.90;;;;;;5053002;28;20045;-76
2022/03/08 12:29:36;;;;;;;4.60;0.63;;;21.70;27.90;;;;;;5107706;27;20449;-77
2022/03/08 12:34:45;;;;;;;6.88;1.20;;;21.90;27.90;;;;;;5099126;27;20398;-79
2022/03/08 12:42:58;;;;;;;8.77;0.95;;;22.30;27.50;;;;;;5099028;27;20424;-74
2022/03/08 12:45:35;;;;;;;6.93;0.50;;;22.30;27.10;;;;;;5096750;28;20035;-75
2022/03/08 12:48:05;;;;;;;5.00;0.50;;;22.40;27.20;;;;;;5112054;27;20124;-72
2022/03/08 12:53:16;;;;;;;3.72;0.60;;;22.50;27.20;;;;;;5101115;27;20400;-75
2022/03/08 12:55:45;;;;;;;3.83;0.50;;;22.50;27.00;;;;;;5078687;28;20052;-78
2022/03/08 12:58:14;;;;;;;2.75;0.55;;;22.70;27.10;;;;;;5077041;28;20055;-75
2022/03/08 13:01:01;;;;;;;4.43;0.52;;;22.70;27.10;;;;;;5086318;28;20505;-76
2022/03/08 13:03:29;;;;;;;3.35;0.30;;;22.80;27.10;;;;;;5086135;28;20055;-75
2022/03/08 13:05:58;;;;;;;3.92;0.60;;;22.80;27.00;;;;;;5084247;28;20047;-76
2022/03/08 13:08:30;;;;;;;5.47;0.30;;;23.00;27.00;;;;;;5080978;28;20097;-77
2022/03/08 13:10:59;;;;;;;2.03;0.45;;;23.00;27.00;;;;;;5082211;28;20388;-74
2022/03/08 13:13:25;;;;;;;3.22;0.60;;;23.10;26.60;;;;;;5082341;28;20048;-75
2022/03/08 13:15:51;;;;;;;4.95;0.43;;;23.00;26.00;;;;;;5092900;28;20119;-72
2022/03/08 13:18:23;;;;;;;2.95;0.30;;;22.90;25.70;;;;;;5074553;28;20507;-72
2022/03/08 13:20:50;;;;;;;5.45;0.57;;;22.90;25.80;;;;;;5078849;28;20136;-73
2022/03/08 13:23:20;;;;;;;2.15;0.30;;;22.80;26.00;;;;;;5076277;28;20813;-74
2022/03/08 13:25:48;;;;;;;4.05;0.35;;;22.70;26.00;;;;;;5079665;28;20036;-75
2022/03/08 13:28:16;;;;;;;3.83;0.35;;;22.70;26.10;;;;;;5088800;28;20518;-74
2022/03/08 13:30:44;;;;;;;4.95;0.32;;;22.70;26.00;;;;;;5093785;28;20047;-75
2022/03/08 13:41:22;;;;;;;4.53;0.28;;;23.00;26.60;;;;;;5064442;27;20470;-68
2022/03/08 13:43:53;;;;;;;3.08;0.30;;;23.10;26.70;;;;;;5063291;28;20047;-74